Time;durP1;ratioP1;P1;durP2;ratioP2;P2;SDS_P1;SDS_P2;PMS_P1;PMS_P2;Temp;Humidity;BMP_temperature;BMP_pressure;BME280_temperature;BME280_humidity;BME280_pressure;Samples;Min_cycle;Max_cycle;Signal;HPM_P1;HPM_P2
2023/07/29 00:00:56;;;;;;;5.28;1.05;;;;;;;;;;5030026;28;20402;-88
2023/07/29 00:03:22;;;;;;;0.20;0.10;;;;;;;;;;5032915;28;20028;-88
2023/07/29 00:05:48;;;;;;;1.75;0.43;;;;;;;;;;5032457;28;20048;-88
2023/07/29 00:08:14;;;;;;;0.20;0.10;;;;;;;;;;5038729;28;20608;-88
2023/07/29 00:10:40;;;;;;;0.20;0.10;;;;;;;;;;5036115;28;20103;-88
2023/07/29 00:13:06;;;;;;;0.20;0.10;;;;;;;;;;5035177;28;20036;-88
2023/07/29 00:15:32;;;;;;;0.20;0.20;;;;;;;;;;5040218;28;20094;-87
2023/07/29 00:17:58;;;;;;;0.20;0.20;;;;;;;;;;5034674;28;20032;-87
2023/07/29 00:20:24;;;;;;;0.40;0.20;;;;;;;;;;5040327;28;20037;-88
2023/07/29 00:22:53;;;;;;;0.30;0.20;;;;;;;;;;5035642;28;20033;-88
2023/07/29 00:25:19;;;;;;;0.43;0.30;;;;;;;;;;5034609;28;20068;-88
2023/07/29 00:27:45;;;;;;;0.20;0.17;;;;;;;;;;5036931;28;20040;-88
2023/07/29 00:30:12;;;;;;;0.43;0.43;;;;;;;;;;5024988;28;20044;-88
2023/07/29 00:32:38;;;;;;;0.20;0.10;;;;;;;;;;5034729;28;20047;-87
2023/07/29 00:35:04;;;;;;;0.20;0.10;;;;;;;;;;5039395;28;20051;-88
2023/07/29 00:37:30;;;;;;;0.32;0.32;;;;;;;;;;5034655;28;20029;-88
2023/07/29 00:39:57;;;;;;;0.70;0.70;;;;;;;;;;5031359;28;20041;-88
2023/07/29 00:42:24;;;;;;;0.32;0.28;;;;;;;;;;5034912;28;20111;-88
2023/07/29 00:44:50;;;;;;;0.65;0.65;;;;;;;;;;5036444;28;20125;-88
2023/07/29 00:47:16;;;;;;;0.20;0.10;;;;;;;;;;5035903;28;20036;-89
2023/07/29 00:49:45;;;;;;;0.88;0.60;;;;;;;;;;5036512;28;20038;-88
2023/07/29 00:52:12;;;;;;;2.05;0.70;;;;;;;;;;5031670;28;20126;-87
2023/07/29 00:54:41;;;;;;;0.30;0.20;;;;;;;;;;5046442;28;20028;-89
2023/07/29 00:57:09;;;;;;;0.20;0.10;;;;;;;;;;5023673;28;20040;-88
2023/07/29 00:59:36;;;;;;;0.30;0.30;;;;;;;;;;5030871;28;20037;-88
2023/07/29 01:02:02;;;;;;;0.55;0.28;;;;;;;;;;5029968;28;20044;-88
2023/07/29 01:04:28;;;;;;;0.20;0.17;;;;;;;;;;5038332;28;20403;-90
2023/07/29 01:07:15;;;;;;;0.30;0.25;;;;;;;;;;5033398;28;20098;-90
2023/07/29 01:09:49;;;;;;;0.30;0.20;;;;;;;;;;5044571;28;20041;-89
2023/07/29 01:12:27;;;;;;;0.30;0.20;;;;;;;;;;5050898;28;20466;-90
2023/07/29 01:14:59;;;;;;;0.20;0.10;;;;;;;;;;5030267;28;20037;-88
2023/07/29 01:17:30;;;;;;;0.90;0.20;;;;;;;;;;5028109;28;20064;-89
2023/07/29 01:20:05;;;;;;;0.95;0.55;;;;;;;;;;5035376;28;20499;-90
2023/07/29 01:22:32;;;;;;;0.20;0.13;;;;;;;;;;5035599;28;20411;-88
2023/07/29 01:24:59;;;;;;;0.22;0.22;;;;;;;;;;5038664;28;20051;-88
2023/07/29 01:27:25;;;;;;;0.20;0.10;;;;;;;;;;5034787;28;20032;-87
2023/07/29 01:29:52;;;;;;;0.60;0.57;;;;;;;;;;5035622;28;20040;-89
2023/07/29 01:32:21;;;;;;;0.20;0.10;;;;;;;;;;5035917;28;20503;-89
2023/07/29 01:34:59;;;;;;;1.05;0.40;;;;;;;;;;5034479;28;20094;-89
2023/07/29 01:37:27;;;;;;;0.20;0.10;;;;;;;;;;5034339;28;20047;-87
2023/07/29 01:39:55;;;;;;;0.60;0.47;;;;;;;;;;5035689;28;20123;-88
2023/07/29 01:42:21;;;;;;;1.17;1.08;;;;;;;;;;5030848;28;20037;-87
2023/07/29 01:44:47;;;;;;;0.20;0.10;;;;;;;;;;5047855;28;20040;-88
2023/07/29 01:47:13;;;;;;;0.20;0.10;;;;;;;;;;5037280;28;20041;-87
2023/07/29 01:49:39;;;;;;;0.20;0.10;;;;;;;;;;5047886;28;20086;-86
2023/07/29 01:52:06;;;;;;;0.20;0.10;;;;;;;;;;5034295;28;20510;-88
2023/07/29 01:54:32;;;;;;;0.20;0.00;;;;;;;;;;5034970;28;20068;-87
2023/07/29 01:56:58;;;;;;;0.20;0.20;;;;;;;;;;5035045;28;20234;-88
2023/07/29 01:59:24;;;;;;;0.20;0.20;;;;;;;;;;5033649;28;20166;-88
2023/07/29 02:01:50;;;;;;;0.20;0.10;;;;;;;;;;5035307;28;20091;-87
2023/07/29 02:04:16;;;;;;;0.30;0.30;;;;;;;;;;5033958;28;20043;-87
2023/07/29 02:06:42;;;;;;;0.20;0.10;;;;;;;;;;5034974;28;20040;-88
2023/07/29 02:09:08;;;;;;;1.63;0.35;;;;;;;;;;5030106;28;20123;-89
2023/07/29 02:11:34;;;;;;;0.25;0.20;;;;;;;;;;5036826;28;20047;-88
2023/07/29 02:14:00;;;;;;;0.20;0.15;;;;;;;;;;5042674;28;20047;-87
2023/07/29 02:16:26;;;;;;;0.55;0.32;;;;;;;;;;5031380;28;20059;-89
2023/07/29 02:18:52;;;;;;;0.30;0.20;;;;;;;;;;5031369;28;20629;-88
2023/07/29 02:21:19;;;;;;;0.20;0.10;;;;;;;;;;5034929;28;20037;-88
2023/07/29 02:23:45;;;;;;;0.40;0.30;;;;;;;;;;5032101;28;20044;-87
2023/07/29 02:26:11;;;;;;;0.45;0.43;;;;;;;;;;5034318;28;20134;-87
2023/07/29 02:28:37;;;;;;;0.30;0.28;;;;;;;;;;5038276;28;20518;-88
2023/07/29 02:31:23;;;;;;;0.20;0.15;;;;;;;;;;5029661;28;20046;-88
2023/07/29 02:33:49;;;;;;;0.32;0.32;;;;;;;;;;5034368;28;20104;-88
2023/07/29 02:36:16;;;;;;;0.20;0.10;;;;;;;;;;5033391;28;20388;-88
2023/07/29 02:38:42;;;;;;;0.20;0.17;;;;;;;;;;5031708;28;20042;-87
2023/07/29 02:41:15;;;;;;;0.30;0.25;;;;;;;;;;5032482;28;20487;-87
2023/07/29 02:43:42;;;;;;;0.20;0.15;;;;;;;;;;5032652;28;20082;-88
2023/07/29 02:46:08;;;;;;;0.20;0.10;;;;;;;;;;5027235;28;20047;-87
2023/07/29 02:48:34;;;;;;;0.30;0.20;;;;;;;;;;5034966;28;20402;-88
2023/07/29 02:51:00;;;;;;;0.40;0.40;;;;;;;;;;5034770;28;20082;-87
2023/07/29 02:53:26;;;;;;;0.20;0.10;;;;;;;;;;5030901;28;20045;-88
2023/07/29 02:55:52;;;;;;;0.30;0.20;;;;;;;;;;5026306;28;20124;-88
2023/07/29 02:58:19;;;;;;;0.20;0.10;;;;;;;;;;5037774;28;20028;-88
2023/07/29 03:00:45;;;;;;;0.30;0.20;;;;;;;;;;5033269;28;20112;-88
2023/07/29 03:03:11;;;;;;;0.20;0.10;;;;;;;;;;5035757;28;20051;-87
2023/07/29 03:05:38;;;;;;;0.30;0.30;;;;;;;;;;5031503;28;20032;-87
2023/07/29 03:08:04;;;;;;;0.50;0.25;;;;;;;;;;5032603;28;20044;-87
2023/07/29 03:10:30;;;;;;;0.20;0.15;;;;;;;;;;5033147;28;20456;-87
2023/07/29 03:12:56;;;;;;;0.20;0.10;;;;;;;;;;5031053;28;20040;-88
2023/07/29 03:15:26;;;;;;;0.63;0.43;;;;;;;;;;5027634;28;20040;-88
2023/07/29 03:17:55;;;;;;;0.20;0.20;;;;;;;;;;5033262;28;20515;-88
2023/07/29 03:20:21;;;;;;;0.30;0.20;;;;;;;;;;5032339;28;20499;-89
2023/07/29 03:22:47;;;;;;;0.30;0.30;;;;;;;;;;5027655;28;20044;-88
2023/07/29 03:25:13;;;;;;;0.20;0.03;;;;;;;;;;5032833;28;20586;-87
2023/07/29 03:27:40;;;;;;;0.20;0.10;;;;;;;;;;5030277;28;20044;-87
2023/07/29 03:30:07;;;;;;;0.20;0.10;;;;;;;;;;5041211;28;20452;-88
2023/07/29 03:32:33;;;;;;;0.20;0.10;;;;;;;;;;5032154;28;20036;-88
2023/07/29 03:34:59;;;;;;;0.20;0.00;;;;;;;;;;5043924;28;20495;-88
2023/07/29 03:37:25;;;;;;;0.20;0.10;;;;;;;;;;5037337;28;20032;-88
2023/07/29 03:39:52;;;;;;;0.55;0.50;;;;;;;;;;5031396;28;20131;-87
2023/07/29 03:42:18;;;;;;;0.20;0.10;;;;;;;;;;5026619;28;20120;-87
2023/07/29 03:44:44;;;;;;;0.20;0.20;;;;;;;;;;5033174;28;20532;-88
2023/07/29 03:47:10;;;;;;;0.20;0.10;;;;;;;;;;5032056;28;20052;-88
2023/07/29 03:49:37;;;;;;;0.20;0.10;;;;;;;;;;5029777;28;20415;-87
2023/07/29 03:52:03;;;;;;;0.20;0.10;;;;;;;;;;5032268;28;20499;-88
2023/07/29 03:54:29;;;;;;;0.20;0.10;;;;;;;;;;5032724;28;20518;-88
2023/07/29 03:56:55;;;;;;;0.30;0.20;;;;;;;;;;5030753;28;20554;-87
2023/07/29 03:59:22;;;;;;;0.30;0.22;;;;;;;;;;5033149;28;20398;-88
2023/07/29 04:01:49;;;;;;;0.20;0.00;;;;;;;;;;5030409;28;20555;-88
2023/07/29 04:04:15;;;;;;;0.50;0.20;;;;;;;;;;5032143;28;20080;-88
2023/07/29 04:06:41;;;;;;;0.20;0.20;;;;;;;;;;5029233;28;20458;-89
2023/07/29 04:09:07;;;;;;;0.20;0.10;;;;;;;;;;5031589;28;20064;-88
2023/07/29 04:11:34;;;;;;;0.25;0.20;;;;;;;;;;5032718;28;20072;-88
2023/07/29 04:14:00;;;;;;;0.20;0.10;;;;;;;;;;5031830;28;20076;-87
2023/07/29 04:16:26;;;;;;;0.30;0.20;;;;;;;;;;5032540;28;20043;-88
2023/07/29 04:18:52;;;;;;;0.20;0.00;;;;;;;;;;5035453;28;20121;-88
2023/07/29 04:21:18;;;;;;;0.20;0.03;;;;;;;;;;5027368;28;20082;-88
2023/07/29 04:23:44;;;;;;;0.20;0.10;;;;;;;;;;5036279;28;20052;-88
2023/07/29 04:26:10;;;;;;;0.40;0.40;;;;;;;;;;5030771;28;20073;-87
2023/07/29 04:28:36;;;;;;;0.20;0.10;;;;;;;;;;5036946;28;20036;-88
2023/07/29 04:31:02;;;;;;;0.20;0.10;;;;;;;;;;5032177;28;20066;-88
2023/07/29 04:33:30;;;;;;;0.20;0.10;;;;;;;;;;5031305;28;20044;-87
2023/07/29 04:35:56;;;;;;;0.20;0.10;;;;;;;;;;5028858;28;20094;-88
2023/07/29 04:38:22;;;;;;;0.43;0.30;;;;;;;;;;5032044;28;20043;-87
2023/07/29 04:40:51;;;;;;;0.20;0.10;;;;;;;;;;5027863;28;20041;-87
2023/07/29 04:43:17;;;;;;;0.20;0.10;;;;;;;;;;5056329;28;20135;-87
2023/07/29 04:45:44;;;;;;;0.52;0.32;;;;;;;;;;5036292;28;20048;-88
2023/07/29 04:48:10;;;;;;;0.38;0.32;;;;;;;;;;5036932;28;20551;-88
2023/07/29 04:50:36;;;;;;;0.20;0.10;;;;;;;;;;5035212;28;20458;-87
2023/07/29 04:53:02;;;;;;;0.20;0.00;;;;;;;;;;5036593;28;20045;-87
2023/07/29 04:55:28;;;;;;;0.20;0.10;;;;;;;;;;5052234;28;20048;-89
2023/07/29 04:57:54;;;;;;;0.30;0.10;;;;;;;;;;5036028;28;20037;-88
2023/07/29 05:00:20;;;;;;;0.20;0.00;;;;;;;;;;5044668;28;20128;-89
2023/07/29 05:02:46;;;;;;;0.20;0.13;;;;;;;;;;5035323;28;20051;-87
2023/07/29 05:05:12;;;;;;;0.20;0.10;;;;;;;;;;5046529;28;20051;-87
2023/07/29 05:07:38;;;;;;;0.20;0.10;;;;;;;;;;5032735;28;20044;-88
2023/07/29 05:10:04;;;;;;;0.20;0.10;;;;;;;;;;5033470;28;20029;-88
2023/07/29 05:12:32;;;;;;;0.20;0.15;;;;;;;;;;5035092;28;20098;-89
2023/07/29 05:14:58;;;;;;;0.20;0.00;;;;;;;;;;5050329;28;20052;-88
2023/07/29 05:17:24;;;;;;;0.20;0.10;;;;;;;;;;5034456;28;20168;-88
2023/07/29 05:19:50;;;;;;;0.20;0.00;;;;;;;;;;5035135;28;20036;-88
2023/07/29 05:22:16;;;;;;;0.20;0.00;;;;;;;;;;5037028;28;20173;-88
2023/07/29 05:24:42;;;;;;;0.20;0.00;;;;;;;;;;5038918;28;20029;-88
2023/07/29 05:27:08;;;;;;;0.20;0.10;;;;;;;;;;5030381;28;20220;-88
2023/07/29 05:29:35;;;;;;;0.22;0.17;;;;;;;;;;5034464;28;20174;-88
2023/07/29 05:32:01;;;;;;;0.20;0.10;;;;;;;;;;5034796;28;20036;-88
2023/07/29 05:34:27;;;;;;;0.20;0.00;;;;;;;;;;5033170;28;20036;-89
2023/07/29 05:36:53;;;;;;;0.20;0.10;;;;;;;;;;5031769;28;20128;-88
2023/07/29 05:39:19;;;;;;;0.20;0.20;;;;;;;;;;5038297;28;20171;-89
2023/07/29 05:41:46;;;;;;;0.20;0.10;;;;;;;;;;5035046;28;20040;-89
2023/07/29 05:44:12;;;;;;;0.20;0.05;;;;;;;;;;5030377;28;20218;-88
2023/07/29 05:46:38;;;;;;;0.20;0.10;;;;;;;;;;5030277;28;20041;-87
2023/07/29 05:49:04;;;;;;;0.30;0.20;;;;;;;;;;5029966;28;20074;-87
2023/07/29 05:54:25;;;;;;;0.20;0.05;;;;;;;;;;5012996;28;20424;-87
2023/07/29 05:56:51;;;;;;;0.20;0.03;;;;;;;;;;4974709;28;20526;-83
2023/07/29 05:59:17;;;;;;;0.20;0.00;;;;;;;;;;4976656;28;20045;-85
2023/07/29 06:01:43;;;;;;;0.20;0.10;;;;;;;;;;4974551;28;20188;-84
2023/07/29 06:04:09;;;;;;;0.20;0.10;;;;;;;;;;4985633;28;20133;-83
2023/07/29 06:06:35;;;;;;;0.20;0.10;;;;;;;;;;4995732;28;20549;-85
2023/07/29 06:09:01;;;;;;;0.20;0.03;;;;;;;;;;4992650;28;20422;-86
2023/07/29 06:11:27;;;;;;;0.20;0.03;;;;;;;;;;4991680;28;20049;-85
2023/07/29 06:13:53;;;;;;;0.20;0.00;;;;;;;;;;4989088;28;20120;-82
2023/07/29 06:16:19;;;;;;;0.20;0.10;;;;;;;;;;4992076;28;20499;-83
2023/07/29 06:18:48;;;;;;;0.20;0.10;;;;;;;;;;4992138;28;20088;-87
2023/07/29 06:21:25;;;;;;;0.20;0.10;;;;;;;;;;4994107;28;20037;-87
2023/07/29 06:23:54;;;;;;;0.22;0.13;;;;;;;;;;4974523;28;20040;-85
2023/07/29 06:26:20;;;;;;;0.20;0.10;;;;;;;;;;4991580;28;20040;-84
2023/07/29 06:28:46;;;;;;;0.20;0.08;;;;;;;;;;4992274;28;20124;-84
2023/07/29 06:31:12;;;;;;;0.45;0.30;;;;;;;;;;4991250;28;20133;-86
2023/07/29 06:33:38;;;;;;;0.20;0.05;;;;;;;;;;4991686;28;20574;-84
2023/07/29 06:36:05;;;;;;;0.20;0.10;;;;;;;;;;4976197;28;20125;-84
2023/07/29 06:38:31;;;;;;;0.20;0.10;;;;;;;;;;5000138;28;20103;-86
2023/07/29 06:40:57;;;;;;;0.20;0.00;;;;;;;;;;4992202;28;20042;-85
2023/07/29 06:43:23;;;;;;;0.20;0.10;;;;;;;;;;4995552;28;20442;-84
2023/07/29 06:45:49;;;;;;;0.20;0.10;;;;;;;;;;4993900;28;20430;-84
2023/07/29 06:48:15;;;;;;;0.20;0.10;;;;;;;;;;4995975;28;20080;-82
2023/07/29 06:50:41;;;;;;;0.20;0.20;;;;;;;;;;5007816;28;20050;-86
2023/07/29 06:53:07;;;;;;;0.30;0.20;;;;;;;;;;4991138;28;20046;-82
2023/07/29 06:55:33;;;;;;;0.20;0.10;;;;;;;;;;4990326;28;20042;-83
2023/07/29 06:57:59;;;;;;;0.30;0.30;;;;;;;;;;4993524;28;20121;-82
2023/07/29 07:00:25;;;;;;;0.20;0.10;;;;;;;;;;4975997;28;20034;-84
2023/07/29 07:02:51;;;;;;;1.48;0.50;;;;;;;;;;4992504;28;20574;-84
2023/07/29 07:05:20;;;;;;;0.20;0.05;;;;;;;;;;4991862;28;20042;-83
2023/07/29 07:07:46;;;;;;;0.20;0.10;;;;;;;;;;4995047;28;20148;-83
2023/07/29 07:10:12;;;;;;;0.20;0.10;;;;;;;;;;4991352;28;20049;-83
2023/07/29 07:12:38;;;;;;;0.30;0.20;;;;;;;;;;4993222;28;20536;-84
2023/07/29 07:15:04;;;;;;;0.20;0.10;;;;;;;;;;4991445;28;20038;-83
2023/07/29 07:17:30;;;;;;;0.20;0.10;;;;;;;;;;4974378;28;20034;-85
2023/07/29 07:19:56;;;;;;;0.28;0.10;;;;;;;;;;4991134;28;20410;-82
2023/07/29 07:22:23;;;;;;;0.75;0.73;;;;;;;;;;4994329;28;20430;-81
2023/07/29 07:24:49;;;;;;;0.20;0.10;;;;;;;;;;4997503;28;20045;-83
2023/07/29 07:27:15;;;;;;;0.20;0.10;;;;;;;;;;4992249;28;20096;-83
2023/07/29 07:29:41;;;;;;;0.20;0.10;;;;;;;;;;4992533;28;20132;-83
2023/07/29 07:32:07;;;;;;;0.20;0.10;;;;;;;;;;4993648;28;20152;-85
2023/07/29 07:34:34;;;;;;;0.20;0.10;;;;;;;;;;4995750;28;20038;-82
2023/07/29 07:37:00;;;;;;;0.20;0.10;;;;;;;;;;4993910;28;20039;-82
2023/07/29 07:39:26;;;;;;;0.20;0.10;;;;;;;;;;5015274;28;20508;-83
2023/07/29 07:41:53;;;;;;;0.20;0.00;;;;;;;;;;4985620;28;20038;-83
2023/07/29 07:44:19;;;;;;;0.20;0.10;;;;;;;;;;4974287;28;20092;-83
2023/07/29 07:46:45;;;;;;;0.22;0.22;;;;;;;;;;4991815;28;20050;-81
2023/07/29 07:49:12;;;;;;;0.20;0.10;;;;;;;;;;4997319;28;20049;-85
2023/07/29 07:51:39;;;;;;;0.20;0.20;;;;;;;;;;4996281;28;20042;-85
2023/07/29 07:54:05;;;;;;;0.20;0.10;;;;;;;;;;4996543;28;20077;-81
2023/07/29 07:56:31;;;;;;;0.20;0.10;;;;;;;;;;4991307;28;20069;-83
2023/07/29 07:58:57;;;;;;;0.25;0.20;;;;;;;;;;4997456;28;20084;-84
2023/07/29 08:01:23;;;;;;;0.40;0.40;;;;;;;;;;4987666;28;20037;-83
2023/07/29 08:03:49;;;;;;;0.20;0.20;;;;;;;;;;4999299;28;20505;-85
2023/07/29 08:06:15;;;;;;;0.20;0.10;;;;;;;;;;4996428;28;20046;-85
2023/07/29 08:08:41;;;;;;;0.20;0.20;;;;;;;;;;4989927;28;20042;-82
2023/07/29 08:11:07;;;;;;;0.20;0.20;;;;;;;;;;4997442;28;20037;-86
2023/07/29 08:13:33;;;;;;;0.45;0.43;;;;;;;;;;4992446;28;20049;-82
2023/07/29 08:15:59;;;;;;;0.20;0.10;;;;;;;;;;4994575;28;20042;-84
2023/07/29 08:18:26;;;;;;;0.20;0.10;;;;;;;;;;4978657;28;20096;-83
2023/07/29 08:20:57;;;;;;;0.28;0.20;;;;;;;;;;4997560;28;20392;-84
2023/07/29 08:23:24;;;;;;;0.20;0.10;;;;;;;;;;4996726;28;20034;-80
2023/07/29 08:26:01;;;;;;;0.20;0.10;;;;;;;;;;4995878;28;20053;-82
2023/07/29 08:28:36;;;;;;;0.20;0.10;;;;;;;;;;5000538;28;20042;-84
2023/07/29 08:31:03;;;;;;;0.20;0.10;;;;;;;;;;4995070;28;20046;-85
2023/07/29 08:33:29;;;;;;;0.20;0.10;;;;;;;;;;5003073;28;20091;-82
2023/07/29 08:35:55;;;;;;;0.20;0.10;;;;;;;;;;4995384;28;20042;-84
2023/07/29 08:38:22;;;;;;;0.20;0.10;;;;;;;;;;5017199;28;20557;-85
2023/07/29 08:41:00;;;;;;;0.77;0.15;;;;;;;;;;5012915;28;20133;-83
2023/07/29 08:43:33;;;;;;;0.20;0.10;;;;;;;;;;4991863;28;20102;-84
2023/07/29 08:45:59;;;;;;;0.20;0.10;;;;;;;;;;4996292;28;20041;-82
2023/07/29 08:48:41;;;;;;;0.20;0.10;;;;;;;;;;5020371;28;20123;-84
2023/07/29 08:51:09;;;;;;;1.58;0.63;;;;;;;;;;4989451;28;20113;-82
2023/07/29 08:53:35;;;;;;;0.30;0.20;;;;;;;;;;4994472;28;20042;-85
2023/07/29 08:56:01;;;;;;;0.20;0.10;;;;;;;;;;4995560;28;20065;-84
2023/07/29 08:58:28;;;;;;;0.20;0.10;;;;;;;;;;4995311;28;20100;-85
2023/07/29 09:00:54;;;;;;;0.28;0.20;;;;;;;;;;4995671;28;20037;-82
2023/07/29 09:03:20;;;;;;;0.20;0.15;;;;;;;;;;5013609;28;20041;-85
2023/07/29 09:05:46;;;;;;;0.95;0.68;;;;;;;;;;4999007;28;20049;-84
2023/07/29 09:08:12;;;;;;;0.30;0.20;;;;;;;;;;4999260;28;20129;-84
2023/07/29 09:10:38;;;;;;;0.20;0.00;;;;;;;;;;4995670;28;20168;-84
2023/07/29 09:13:05;;;;;;;0.20;0.10;;;;;;;;;;4991755;28;20045;-84
2023/07/29 09:15:35;;;;;;;0.20;0.15;;;;;;;;;;4994005;28;20046;-86
2023/07/29 09:18:12;;;;;;;0.20;0.10;;;;;;;;;;4993759;28;20048;-82
2023/07/29 09:20:38;;;;;;;0.30;0.30;;;;;;;;;;4989721;28;20068;-80
2023/07/29 09:23:07;;;;;;;0.65;0.20;;;;;;;;;;4993727;28;20041;-82
2023/07/29 09:25:36;;;;;;;0.20;0.08;;;;;;;;;;4993502;28;20042;-87
2023/07/29 09:28:08;;;;;;;0.20;0.10;;;;;;;;;;4982315;28;20516;-82
2023/07/29 09:30:34;;;;;;;0.20;0.10;;;;;;;;;;4992671;28;20038;-82
2023/07/29 09:33:00;;;;;;;0.20;0.10;;;;;;;;;;4993589;28;20038;-83
2023/07/29 09:35:28;;;;;;;0.20;0.10;;;;;;;;;;4994338;28;20042;-85
2023/07/29 09:37:54;;;;;;;0.20;0.10;;;;;;;;;;4993567;28;20034;-83
2023/07/29 09:40:22;;;;;;;0.20;0.10;;;;;;;;;;4993619;28;20065;-82
2023/07/29 09:42:50;;;;;;;0.20;0.10;;;;;;;;;;4991836;28;20400;-86
2023/07/29 09:45:26;;;;;;;0.20;0.10;;;;;;;;;;5013170;28;20048;-83
2023/07/29 09:47:53;;;;;;;0.38;0.20;;;;;;;;;;5012735;28;20046;-81
2023/07/29 09:50:19;;;;;;;0.20;0.10;;;;;;;;;;4994500;28;20030;-81
2023/07/29 09:52:45;;;;;;;0.20;0.10;;;;;;;;;;5002243;28;20037;-84
2023/07/29 09:55:13;;;;;;;0.28;0.20;;;;;;;;;;4995132;28;20120;-83
2023/07/29 09:57:39;;;;;;;0.20;0.10;;;;;;;;;;4988652;28;20053;-86
2023/07/29 10:00:10;;;;;;;0.20;0.10;;;;;;;;;;4995572;28;20569;-83
2023/07/29 10:02:37;;;;;;;0.40;0.20;;;;;;;;;;5010644;28;20076;-83
2023/07/29 10:05:03;;;;;;;0.20;0.10;;;;;;;;;;4997122;28;20129;-83
2023/07/29 10:07:30;;;;;;;0.20;0.10;;;;;;;;;;4976173;28;20099;-86
2023/07/29 10:09:59;;;;;;;0.20;0.10;;;;;;;;;;4974832;28;20042;-83
2023/07/29 10:12:29;;;;;;;0.52;0.32;;;;;;;;;;4991838;28;20114;-85
2023/07/29 10:14:55;;;;;;;0.47;0.20;;;;;;;;;;4997794;28;20054;-83
2023/07/29 10:17:21;;;;;;;0.28;0.28;;;;;;;;;;4992653;28;20068;-82
2023/07/29 10:19:48;;;;;;;0.20;0.10;;;;;;;;;;4998485;28;20073;-82
2023/07/29 10:22:16;;;;;;;0.20;0.10;;;;;;;;;;4994703;28;20523;-83
2023/07/29 10:24:43;;;;;;;0.25;0.20;;;;;;;;;;4999597;28;20048;-83
2023/07/29 10:27:11;;;;;;;0.20;0.10;;;;;;;;;;5004731;28;20097;-83
2023/07/29 10:29:39;;;;;;;0.20;0.13;;;;;;;;;;5000571;28;20038;-82
2023/07/29 10:32:08;;;;;;;0.40;0.20;;;;;;;;;;4992074;28;20254;-82
2023/07/29 10:34:36;;;;;;;0.20;0.00;;;;;;;;;;4995041;28;20414;-82
2023/07/29 10:37:02;;;;;;;0.20;0.10;;;;;;;;;;5006750;28;20485;-81
2023/07/29 10:39:33;;;;;;;0.20;0.10;;;;;;;;;;4992486;28;20510;-82
2023/07/29 10:42:02;;;;;;;0.20;0.00;;;;;;;;;;4975824;28;20038;-84
2023/07/29 10:44:45;;;;;;;0.20;0.10;;;;;;;;;;4993577;28;20044;-83
2023/07/29 10:47:22;;;;;;;0.20;0.10;;;;;;;;;;4993077;28;20041;-83
2023/07/29 10:49:55;;;;;;;0.20;0.10;;;;;;;;;;4997996;28;20530;-82
2023/07/29 10:52:30;;;;;;;0.20;0.20;;;;;;;;;;4994992;28;20077;-83
2023/07/29 10:54:58;;;;;;;0.20;0.10;;;;;;;;;;4994406;28;20479;-84
2023/07/29 10:57:34;;;;;;;0.63;0.55;;;;;;;;;;4992997;28;20048;-85
2023/07/29 11:00:00;;;;;;;0.20;0.10;;;;;;;;;;4990219;28;20073;-83
2023/07/29 11:02:36;;;;;;;0.40;0.35;;;;;;;;;;5010960;28;20034;-85
2023/07/29 11:05:07;;;;;;;0.20;0.10;;;;;;;;;;4994222;28;20421;-84
2023/07/29 11:07:43;;;;;;;0.30;0.22;;;;;;;;;;4992638;28;20479;-81
2023/07/29 11:10:09;;;;;;;0.20;0.10;;;;;;;;;;5009337;28;20045;-81
2023/07/29 11:12:48;;;;;;;0.25;0.10;;;;;;;;;;4995851;28;20041;-83
2023/07/29 11:15:14;;;;;;;0.20;0.10;;;;;;;;;;5000475;28;20029;-83
2023/07/29 11:17:42;;;;;;;0.20;0.00;;;;;;;;;;4977055;28;20581;-82
2023/07/29 11:20:08;;;;;;;0.50;0.30;;;;;;;;;;5000921;28;20046;-83
2023/07/29 11:22:40;;;;;;;0.43;0.30;;;;;;;;;;4994707;28;20038;-85
2023/07/29 11:25:08;;;;;;;0.20;0.10;;;;;;;;;;4993577;28;20042;-84
2023/07/29 11:27:34;;;;;;;0.20;0.10;;;;;;;;;;4993934;28;20038;-86
2023/07/29 11:30:08;;;;;;;0.22;0.10;;;;;;;;;;4990527;28;20317;-83
2023/07/29 11:32:34;;;;;;;0.45;0.20;;;;;;;;;;4992682;28;20037;-84
2023/07/29 11:35:11;;;;;;;0.20;0.10;;;;;;;;;;4993398;28;20040;-80
2023/07/29 11:37:37;;;;;;;0.20;0.10;;;;;;;;;;4997495;28;20038;-83
2023/07/29 11:40:05;;;;;;;0.43;0.30;;;;;;;;;;4991623;28;20172;-84
2023/07/29 11:42:34;;;;;;;0.20;0.20;;;;;;;;;;4975820;28;20037;-87
2023/07/29 11:45:09;;;;;;;0.40;0.35;;;;;;;;;;4996789;28;20042;-83
2023/07/29 11:47:38;;;;;;;0.32;0.30;;;;;;;;;;4992884;28;20045;-87
2023/07/29 11:50:05;;;;;;;0.20;0.10;;;;;;;;;;4988284;28;20034;-83
2023/07/29 11:52:32;;;;;;;0.20;0.10;;;;;;;;;;4980340;28;20582;-82
2023/07/29 11:54:59;;;;;;;0.20;0.10;;;;;;;;;;5000278;28;20042;-82
2023/07/29 11:57:28;;;;;;;0.20;0.20;;;;;;;;;;5016028;28;20421;-82
2023/07/29 11:59:54;;;;;;;0.20;0.10;;;;;;;;;;4997367;28;20554;-82
2023/07/29 12:02:20;;;;;;;0.20;0.03;;;;;;;;;;4999461;28;20065;-85
2023/07/29 12:04:47;;;;;;;0.22;0.10;;;;;;;;;;4996280;28;20041;-82
2023/07/29 12:07:14;;;;;;;0.20;0.00;;;;;;;;;;4998755;28;20657;-85
2023/07/29 12:09:40;;;;;;;0.20;0.10;;;;;;;;;;4995589;28;20075;-84
2023/07/29 12:12:07;;;;;;;0.20;0.00;;;;;;;;;;4998191;28;20046;-83
2023/07/29 12:14:43;;;;;;;0.25;0.10;;;;;;;;;;5000995;28;20045;-86
2023/07/29 12:17:09;;;;;;;0.20;0.10;;;;;;;;;;4997771;28;20104;-84
2023/07/29 12:19:37;;;;;;;0.20;0.10;;;;;;;;;;4998464;28;20453;-83
2023/07/29 12:22:03;;;;;;;0.20;0.10;;;;;;;;;;4995852;28;20042;-81
2023/07/29 12:24:32;;;;;;;0.20;0.10;;;;;;;;;;4996560;28;20026;-86
2023/07/29 12:26:59;;;;;;;0.20;0.10;;;;;;;;;;4994364;28;20057;-84
2023/07/29 12:29:30;;;;;;;0.20;0.10;;;;;;;;;;4995827;28;20073;-87
2023/07/29 12:31:58;;;;;;;0.20;0.10;;;;;;;;;;4998122;28;20042;-83
2023/07/29 12:34:28;;;;;;;0.20;0.00;;;;;;;;;;4995156;28;20048;-85
2023/07/29 12:36:56;;;;;;;0.20;0.20;;;;;;;;;;5003719;28;20421;-84
2023/07/29 12:39:29;;;;;;;0.20;0.10;;;;;;;;;;4995901;28;20069;-83
2023/07/29 12:41:56;;;;;;;0.20;0.10;;;;;;;;;;4983322;28;20038;-82
2023/07/29 12:44:27;;;;;;;0.20;0.20;;;;;;;;;;4982378;28;20042;-82
2023/07/29 12:46:53;;;;;;;0.20;0.10;;;;;;;;;;5013192;28;20137;-84
2023/07/29 12:49:20;;;;;;;0.25;0.17;;;;;;;;;;4996818;28;20673;-81
2023/07/29 12:51:46;;;;;;;0.20;0.10;;;;;;;;;;5001101;28;20041;-85
2023/07/29 12:54:12;;;;;;;0.20;0.10;;;;;;;;;;5013750;28;20530;-86
2023/07/29 12:56:38;;;;;;;0.20;0.13;;;;;;;;;;4978322;28;20038;-82
2023/07/29 12:59:05;;;;;;;0.20;0.20;;;;;;;;;;5002319;28;20034;-84
2023/07/29 13:01:31;;;;;;;0.20;0.20;;;;;;;;;;4998244;28;20450;-86
2023/07/29 13:03:57;;;;;;;0.20;0.17;;;;;;;;;;4997517;28;20034;-85
2023/07/29 13:06:24;;;;;;;0.20;0.00;;;;;;;;;;5001172;28;20034;-82
2023/07/29 13:08:53;;;;;;;0.20;0.10;;;;;;;;;;4995212;28;20114;-85
2023/07/29 13:11:19;;;;;;;0.20;0.10;;;;;;;;;;4997018;28;20089;-85
2023/07/29 13:13:45;;;;;;;0.20;0.10;;;;;;;;;;4997547;28;20071;-82
2023/07/29 13:16:12;;;;;;;0.20;0.03;;;;;;;;;;4992501;28;20426;-86
2023/07/29 13:18:38;;;;;;;1.00;0.10;;;;;;;;;;4994634;28;20044;-83
2023/07/29 13:21:04;;;;;;;0.20;0.10;;;;;;;;;;4998922;28;20413;-81
2023/07/29 13:23:30;;;;;;;0.20;0.00;;;;;;;;;;4989589;28;20037;-84
2023/07/29 13:25:57;;;;;;;0.47;0.47;;;;;;;;;;4983552;28;20045;-86
2023/07/29 13:28:25;;;;;;;0.20;0.10;;;;;;;;;;4990150;28;20790;-84
2023/07/29 13:30:51;;;;;;;0.20;0.00;;;;;;;;;;4987054;28;20034;-86
2023/07/29 13:33:17;;;;;;;0.20;0.15;;;;;;;;;;4969583;28;20045;-84
2023/07/29 13:35:43;;;;;;;0.25;0.20;;;;;;;;;;4980522;28;20046;-86
2023/07/29 13:38:12;;;;;;;0.20;0.10;;;;;;;;;;4989510;28;20034;-84
2023/07/29 13:40:38;;;;;;;0.20;0.17;;;;;;;;;;4980317;28;20084;-88
2023/07/29 13:43:04;;;;;;;0.20;0.05;;;;;;;;;;5044738;22;20078;-84
2023/07/29 13:45:30;;;;;;;0.20;0.08;;;;;;;;;;5035214;28;20040;-85
2023/07/29 13:47:56;;;;;;;0.20;0.10;;;;;;;;;;5043537;28;20063;-84
2023/07/29 13:50:22;;;;;;;0.20;0.00;;;;;;;;;;5056750;28;20079;-85
2023/07/29 13:52:48;;;;;;;0.20;0.10;;;;;;;;;;5045456;28;20065;-82
2023/07/29 13:55:14;;;;;;;0.20;0.13;;;;;;;;;;5033776;28;20489;-84
2023/07/29 13:57:40;;;;;;;0.35;0.22;;;;;;;;;;5038370;28;20048;-83
2023/07/29 14:00:08;;;;;;;0.20;0.10;;;;;;;;;;5034472;28;20036;-85
2023/07/29 14:02:34;;;;;;;0.52;0.22;;;;;;;;;;5044947;28;20036;-84
2023/07/29 14:05:00;;;;;;;0.20;0.05;;;;;;;;;;5043931;28;20071;-85
2023/07/29 14:07:35;;;;;;;0.20;0.10;;;;;;;;;;5047390;28;20037;-85
2023/07/29 14:10:09;;;;;;;0.20;0.10;;;;;;;;;;5043972;28;20033;-86
2023/07/29 14:12:38;;;;;;;0.20;0.10;;;;;;;;;;5045853;28;20033;-85
2023/07/29 14:15:10;;;;;;;0.20;0.10;;;;;;;;;;5043730;28;20055;-83
2023/07/29 14:17:36;;;;;;;0.20;0.13;;;;;;;;;;5064240;28;20049;-85
2023/07/29 14:20:04;;;;;;;0.20;0.20;;;;;;;;;;5048845;28;20040;-84
2023/07/29 14:22:33;;;;;;;0.20;0.00;;;;;;;;;;5060335;28;20045;-87
2023/07/29 14:24:59;;;;;;;0.20;0.10;;;;;;;;;;5091503;28;20047;-82
2023/07/29 14:27:25;;;;;;;0.20;0.10;;;;;;;;;;5035961;28;20040;-84
2023/07/29 14:29:51;;;;;;;0.20;0.10;;;;;;;;;;5045260;28;20047;-84
2023/07/29 14:32:17;;;;;;;0.20;0.00;;;;;;;;;;5062792;28;20174;-83
2023/07/29 14:34:43;;;;;;;0.20;0.20;;;;;;;;;;5036469;28;20044;-86
2023/07/29 14:37:09;;;;;;;0.25;0.10;;;;;;;;;;5059534;28;20386;-83
2023/07/29 14:39:36;;;;;;;0.20;0.00;;;;;;;;;;5045622;28;20036;-83
2023/07/29 14:42:02;;;;;;;0.30;0.30;;;;;;;;;;5058694;28;20038;-84
2023/07/29 14:44:31;;;;;;;0.20;0.10;;;;;;;;;;5045145;28;20044;-86
2023/07/29 14:46:57;;;;;;;0.38;0.38;;;;;;;;;;5044421;28;20528;-84